Time;durP1;ratioP1;P1;durP2;ratioP2;P2;SDS_P1;SDS_P2;PMS_P1;PMS_P2;Temp;Humidity;BMP_temperature;BMP_pressure;BME280_temperature;BME280_humidity;BME280_pressure;Samples;Min_cycle;Max_cycle;Signal;HPM_P1;HPM_P2
2022/03/30 00:00:39;;;;;;;20.9;8.35;;;;;;;9.52;43.55566;94069.42;;;;
2022/03/30 00:01:39;;;;;;;20.9;8.35;;;;;;;9.52;43.55566;94069.42;;;;
2022/03/30 00:02:40;;;;;;;20.9;8.35;;;;;;;9.52;43.55566;94069.42;;;;
2022/03/30 00:03:40;;;;;;;20.9;8.35;;;;;;;9.52;43.55566;94069.42;;;;
2022/03/30 00:04:41;;;;;;;20.9;8.35;;;;;;;9.52;43.55566;94069.42;;;;
2022/03/30 00:05:41;;;;;;;20.9;8.35;;;;;;;9.52;43.55566;94069.42;;;;
2022/03/30 00:06:42;;;;;;;20.9;8.35;;;;;;;9.52;43.55566;94069.42;;;;
2022/03/30 00:07:42;;;;;;;20.9;8.35;;;;;;;9.52;43.55566;94069.42;;;;
2022/03/30 00:08:43;;;;;;;20.9;8.35;;;;;;;9.52;43.55566;94069.42;;;;
2022/03/30 00:09:43;;;;;;;20.9;8.35;;;;;;;9.52;43.55566;94069.42;;;;
2022/03/30 00:10:44;;;;;;;23.55;8.25;;;;;;;9.49;43.86523;94057.26;;;;
2022/03/30 00:11:44;;;;;;;23.55;8.25;;;;;;;9.49;43.86523;94057.26;;;;
2022/03/30 00:12:45;;;;;;;23.55;8.25;;;;;;;9.49;43.86523;94057.26;;;;
2022/03/30 00:13:47;;;;;;;23.55;8.25;;;;;;;9.49;43.86523;94057.26;;;;
2022/03/30 00:14:47;;;;;;;23.55;8.25;;;;;;;9.49;43.86523;94057.26;;;;
2022/03/30 00:15:48;;;;;;;23.55;8.25;;;;;;;9.49;43.86523;94057.26;;;;
2022/03/30 00:16:48;;;;;;;23.55;8.25;;;;;;;9.49;43.86523;94057.26;;;;
2022/03/30 00:17:49;;;;;;;23.55;8.25;;;;;;;9.49;43.86523;94057.26;;;;
2022/03/30 00:18:50;;;;;;;23.55;8.25;;;;;;;9.49;43.86523;94057.26;;;;
2022/03/30 00:19:50;;;;;;;23.55;8.25;;;;;;;9.49;43.86523;94057.26;;;;
2022/03/30 00:20:51;;;;;;;22.7;8.199999;;;;;;;9.52;44.13672;94047.86;;;;
2022/03/30 00:21:51;;;;;;;22.7;8.199999;;;;;;;9.52;44.13672;94047.86;;;;
2022/03/30 00:22:52;;;;;;;22.7;8.199999;;;;;;;9.52;44.13672;94047.86;;;;
2022/03/30 00:23:53;;;;;;;22.7;8.199999;;;;;;;9.52;44.13672;94047.86;;;;
2022/03/30 00:24:53;;;;;;;22.7;8.199999;;;;;;;9.52;44.13672;94047.86;;;;
2022/03/30 00:25:54;;;;;;;22.7;8.199999;;;;;;;9.52;44.13672;94047.86;;;;
2022/03/30 00:26:54;;;;;;;22.7;8.199999;;;;;;;9.52;44.13672;94047.86;;;;
2022/03/30 00:27:55;;;;;;;22.7;8.199999;;;;;;;9.52;44.13672;94047.86;;;;
2022/03/30 00:28:56;;;;;;;22.7;8.199999;;;;;;;9.52;44.13672;94047.86;;;;
2022/03/30 00:29:57;;;;;;;22.7;8.199999;;;;;;;9.52;44.13672;94047.86;;;;
2022/03/30 00:30:57;;;;;;;22.7;8.199999;;;;;;;9.52;44.13672;94047.86;;;;
2022/03/30 00:31:58;;;;;;;26.3;8.500001;;;;;;;9.5;44.4043;94038.25;;;;
2022/03/30 00:32:58;;;;;;;26.3;8.500001;;;;;;;9.5;44.4043;94038.25;;;;
2022/03/30 00:33:59;;;;;;;26.3;8.500001;;;;;;;9.5;44.4043;94038.25;;;;
2022/03/30 00:35:00;;;;;;;26.3;8.500001;;;;;;;9.5;44.4043;94038.25;;;;
2022/03/30 00:36:00;;;;;;;26.3;8.500001;;;;;;;9.5;44.4043;94038.25;;;;
2022/03/30 00:37:01;;;;;;;26.3;8.500001;;;;;;;9.5;44.4043;94038.25;;;;
2022/03/30 00:38:03;;;;;;;26.3;8.500001;;;;;;;9.5;44.4043;94038.25;;;;
2022/03/30 00:39:03;;;;;;;26.3;8.500001;;;;;;;9.5;44.4043;94038.25;;;;
2022/03/30 00:40:04;;;;;;;26.3;8.500001;;;;;;;9.5;44.4043;94038.25;;;;
2022/03/30 00:41:07;;;;;;;26.3;8.500001;;;;;;;9.5;44.4043;94038.25;;;;
2022/03/30 00:42:08;;;;;;;20.8;7.950001;;;;;;;9.42;44.83789;94018.96;;;;
2022/03/30 00:43:17;;;;;;;20.8;7.950001;;;;;;;9.42;44.83789;94018.96;;;;
2022/03/30 00:44:17;;;;;;;20.8;7.950001;;;;;;;9.42;44.83789;94018.96;;;;
2022/03/30 00:45:18;;;;;;;20.8;7.950001;;;;;;;9.42;44.83789;94018.96;;;;
2022/03/30 00:46:20;;;;;;;20.8;7.950001;;;;;;;9.42;44.83789;94018.96;;;;
2022/03/30 00:47:21;;;;;;;20.8;7.950001;;;;;;;9.42;44.83789;94018.96;;;;
2022/03/30 00:48:23;;;;;;;20.8;7.950001;;;;;;;9.42;44.83789;94018.96;;;;
2022/03/30 00:49:24;;;;;;;20.8;7.950001;;;;;;;9.42;44.83789;94018.96;;;;
2022/03/30 00:50:24;;;;;;;20.8;7.950001;;;;;;;9.42;44.83789;94018.96;;;;
2022/03/30 00:51:25;;;;;;;20.8;7.950001;;;;;;;9.42;44.83789;94018.96;;;;
2022/03/30 00:52:26;;;;;;;20.8;7.950001;;;;;;;9.42;44.83789;94018.96;;;;
2022/03/30 00:53:26;;;;;;;21.6;8.699999;;;;;;;9.37;45.19922;94010.44;;;;
2022/03/30 00:54:27;;;;;;;21.6;8.699999;;;;;;;9.37;45.19922;94010.44;;;;
2022/03/30 00:55:27;;;;;;;21.6;8.699999;;;;;;;9.37;45.19922;94010.44;;;;
2022/03/30 00:56:28;;;;;;;21.6;8.699999;;;;;;;9.37;45.19922;94010.44;;;;
2022/03/30 00:57:32;;;;;;;21.6;8.699999;;;;;;;9.37;45.19922;94010.44;;;;
2022/03/30 00:58:35;;;;;;;21.6;8.699999;;;;;;;9.37;45.19922;94010.44;;;;
2022/03/30 00:59:36;;;;;;;21.6;8.699999;;;;;;;9.37;45.19922;94010.44;;;;
2022/03/30 01:00:37;;;;;;;21.6;8.699999;;;;;;;9.37;45.19922;94010.44;;;;
2022/03/30 01:01:38;;;;;;;21.6;8.699999;;;;;;;9.37;45.19922;94010.44;;;;
2022/03/30 01:02:38;;;;;;;21.6;8.699999;;;;;;;9.37;45.19922;94010.44;;;;
2022/03/30 01:03:40;;;;;;;20.65;8.049999;;;;;;;9.35;45.48828;94005.7;;;;
2022/03/30 01:04:41;;;;;;;20.65;8.049999;;;;;;;9.35;45.48828;94005.7;;;;
2022/03/30 01:05:44;;;;;;;20.65;8.049999;;;;;;;9.35;45.48828;94005.7;;;;
2022/03/30 01:06:44;;;;;;;20.65;8.049999;;;;;;;9.35;45.48828;94005.7;;;;
2022/03/30 01:07:45;;;;;;;20.65;8.049999;;;;;;;9.35;45.48828;94005.7;;;;
2022/03/30 01:08:48;;;;;;;20.65;8.049999;;;;;;;9.35;45.48828;94005.7;;;;
2022/03/30 01:09:48;;;;;;;20.65;8.049999;;;;;;;9.35;45.48828;94005.7;;;;
2022/03/30 01:10:49;;;;;;;20.65;8.049999;;;;;;;9.35;45.48828;94005.7;;;;
2022/03/30 01:11:51;;;;;;;20.65;8.049999;;;;;;;9.35;45.48828;94005.7;;;;
2022/03/30 01:12:54;;;;;;;20.65;8.049999;;;;;;;9.35;45.48828;94005.7;;;;
2022/03/30 01:13:55;;;;;;;20.65;8.049999;;;;;;;9.35;45.48828;94005.7;;;;
2022/03/30 01:14:56;;;;;;;25.2;8.75;;;;;;;9.35;45.7666;94001.81;;;;
2022/03/30 01:15:58;;;;;;;25.2;8.75;;;;;;;9.35;45.7666;94001.81;;;;
2022/03/30 01:16:58;;;;;;;25.2;8.75;;;;;;;9.35;45.7666;94001.81;;;;
2022/03/30 01:17:59;;;;;;;25.2;8.75;;;;;;;9.35;45.7666;94001.81;;;;
2022/03/30 01:18:59;;;;;;;25.2;8.75;;;;;;;9.35;45.7666;94001.81;;;;
2022/03/30 01:20:03;;;;;;;25.2;8.75;;;;;;;9.35;45.7666;94001.81;;;;
2022/03/30 01:21:05;;;;;;;25.2;8.75;;;;;;;9.35;45.7666;94001.81;;;;
2022/03/30 01:22:07;;;;;;;25.2;8.75;;;;;;;9.35;45.7666;94001.81;;;;
2022/03/30 01:23:08;;;;;;;25.2;8.75;;;;;;;9.35;45.7666;94001.81;;;;
2022/03/30 01:24:08;;;;;;;25.2;8.75;;;;;;;9.35;45.7666;94001.81;;;;
2022/03/30 01:25:10;;;;;;;21.45;8.199999;;;;;;;9.41;45.95801;94006.02;;;;
2022/03/30 01:26:11;;;;;;;21.45;8.199999;;;;;;;9.41;45.95801;94006.02;;;;
2022/03/30 01:27:11;;;;;;;21.45;8.199999;;;;;;;9.41;45.95801;94006.02;;;;
2022/03/30 01:28:12;;;;;;;21.45;8.199999;;;;;;;9.41;45.95801;94006.02;;;;
2022/03/30 01:34:23;;;;;;;21.45;8.199999;;;;;;;9.41;45.95801;94006.02;;;;
2022/03/30 01:35:24;;;;;;;21.45;8.199999;;;;;;;9.41;45.95801;94006.02;;;;
2022/03/30 01:36:25;;;;;;;20.3;7.800001;;;;;;;9.52;46.16211;93984.4;;;;
2022/03/30 01:37:27;;;;;;;20.3;7.800001;;;;;;;9.52;46.16211;93984.4;;;;
2022/03/30 01:38:29;;;;;;;20.3;7.800001;;;;;;;9.52;46.16211;93984.4;;;;
2022/03/30 01:39:29;;;;;;;20.3;7.800001;;;;;;;9.52;46.16211;93984.4;;;;
2022/03/30 01:40:30;;;;;;;20.3;7.800001;;;;;;;9.52;46.16211;93984.4;;;;
2022/03/30 01:41:31;;;;;;;20.3;7.800001;;;;;;;9.52;46.16211;93984.4;;;;
2022/03/30 01:42:32;;;;;;;20.3;7.800001;;;;;;;9.52;46.16211;93984.4;;;;
2022/03/30 01:43:33;;;;;;;20.3;7.800001;;;;;;;9.52;46.16211;93984.4;;;;
2022/03/30 01:44:33;;;;;;;20.3;7.800001;;;;;;;9.52;46.16211;93984.4;;;;
2022/03/30 01:45:35;;;;;;;20.3;7.800001;;;;;;;9.52;46.16211;93984.4;;;;
2022/03/30 01:46:35;;;;;;;22;8.599999;;;;;;;9.63;46.33496;93969.5;;;;
2022/03/30 01:47:39;;;;;;;22;8.599999;;;;;;;9.63;46.33496;93969.5;;;;
2022/03/30 01:48:40;;;;;;;22;8.599999;;;;;;;9.63;46.33496;93969.5;;;;
2022/03/30 01:49:41;;;;;;;22;8.599999;;;;;;;9.63;46.33496;93969.5;;;;
2022/03/30 01:50:42;;;;;;;22;8.599999;;;;;;;9.63;46.33496;93969.5;;;;
2022/03/30 01:51:42;;;;;;;22;8.599999;;;;;;;9.63;46.33496;93969.5;;;;
2022/03/30 01:52:43;;;;;;;22;8.599999;;;;;;;9.63;46.33496;93969.5;;;;
2022/03/30 01:53:43;;;;;;;22;8.599999;;;;;;;9.63;46.33496;93969.5;;;;
2022/03/30 01:54:44;;;;;;;22;8.599999;;;;;;;9.63;46.33496;93969.5;;;;
2022/03/30 01:55:45;;;;;;;22;8.599999;;;;;;;9.63;46.33496;93969.5;;;;
2022/03/30 01:56:45;;;;;;;23.65;8.45;;;;;;;9.69;46.53516;93975.2;;;;
2022/03/30 01:57:46;;;;;;;23.65;8.45;;;;;;;9.69;46.53516;93975.2;;;;
2022/03/30 01:58:47;;;;;;;23.65;8.45;;;;;;;9.69;46.53516;93975.2;;;;
2022/03/30 01:59:48;;;;;;;23.65;8.45;;;;;;;9.69;46.53516;93975.2;;;;
2022/03/30 02:00:48;;;;;;;23.65;8.45;;;;;;;9.69;46.53516;93975.2;;;;
2022/03/30 02:01:49;;;;;;;23.65;8.45;;;;;;;9.69;46.53516;93975.2;;;;
2022/03/30 02:02:50;;;;;;;23.65;8.45;;;;;;;9.69;46.53516;93975.2;;;;
2022/03/30 02:03:50;;;;;;;23.65;8.45;;;;;;;9.69;46.53516;93975.2;;;;
2022/03/30 02:04:51;;;;;;;23.65;8.45;;;;;;;9.69;46.53516;93975.2;;;;
2022/03/30 02:05:52;;;;;;;23.65;8.45;;;;;;;9.69;46.53516;93975.2;;;;
2022/03/30 02:06:53;;;;;;;23.65;8.45;;;;;;;9.69;46.53516;93975.2;;;;
2022/03/30 02:07:53;;;;;;;23.6;8.6;;;;;;;9.67;46.72656;93962.52;;;;
2022/03/30 02:08:54;;;;;;;23.6;8.6;;;;;;;9.67;46.72656;93962.52;;;;
2022/03/30 02:09:55;;;;;;;23.6;8.6;;;;;;;9.67;46.72656;93962.52;;;;
2022/03/30 02:10:55;;;;;;;23.6;8.6;;;;;;;9.67;46.72656;93962.52;;;;
2022/03/30 02:11:56;;;;;;;23.6;8.6;;;;;;;9.67;46.72656;93962.52;;;;
2022/03/30 02:12:58;;;;;;;23.6;8.6;;;;;;;9.67;46.72656;93962.52;;;;
2022/03/30 02:13:58;;;;;;;23.6;8.6;;;;;;;9.67;46.72656;93962.52;;;;
2022/03/30 02:15:00;;;;;;;23.6;8.6;;;;;;;9.67;46.72656;93962.52;;;;
2022/03/30 02:16:00;;;;;;;23.6;8.6;;;;;;;9.67;46.72656;93962.52;;;;
2022/03/30 02:17:01;;;;;;;23.6;8.6;;;;;;;9.67;46.72656;93962.52;;;;
2022/03/30 02:18:02;;;;;;;23.6;8.6;;;;;;;9.67;46.72656;93962.52;;;;
2022/03/30 02:19:05;;;;;;;24.05;8.9;;;;;;;9.65;47.10156;93935.96;;;;
2022/03/30 02:20:05;;;;;;;24.05;8.9;;;;;;;9.65;47.10156;93935.96;;;;
2022/03/30 02:21:07;;;;;;;24.05;8.9;;;;;;;9.65;47.10156;93935.96;;;;
2022/03/30 02:22:07;;;;;;;24.05;8.9;;;;;;;9.65;47.10156;93935.96;;;;
2022/03/30 02:23:08;;;;;;;24.05;8.9;;;;;;;9.65;47.10156;93935.96;;;;
2022/03/30 02:24:08;;;;;;;24.05;8.9;;;;;;;9.65;47.10156;93935.96;;;;
2022/03/30 02:25:09;;;;;;;24.05;8.9;;;;;;;9.65;47.10156;93935.96;;;;
2022/03/30 02:26:10;;;;;;;24.05;8.9;;;;;;;9.65;47.10156;93935.96;;;;
2022/03/30 02:27:11;;;;;;;24.05;8.9;;;;;;;9.65;47.10156;93935.96;;;;
2022/03/30 02:28:13;;;;;;;24.05;8.9;;;;;;;9.65;47.10156;93935.96;;;;
2022/03/30 02:29:13;;;;;;;22;8.349999;;;;;;;9.67;47.24316;93917.64;;;;
2022/03/30 02:30:14;;;;;;;22;8.349999;;;;;;;9.67;47.24316;93917.64;;;;
2022/03/30 02:31:15;;;;;;;22;8.349999;;;;;;;9.67;47.24316;93917.64;;;;
2022/03/30 02:32:15;;;;;;;22;8.349999;;;;;;;9.67;47.24316;93917.64;;;;
2022/03/30 02:33:16;;;;;;;22;8.349999;;;;;;;9.67;47.24316;93917.64;;;;
2022/03/30 02:34:16;;;;;;;22;8.349999;;;;;;;9.67;47.24316;93917.64;;;;
2022/03/30 02:35:18;;;;;;;22;8.349999;;;;;;;9.67;47.24316;93917.64;;;;
2022/03/30 02:36:19;;;;;;;22;8.349999;;;;;;;9.67;47.24316;93917.64;;;;
2022/03/30 02:37:19;;;;;;;22;8.349999;;;;;;;9.67;47.24316;93917.64;;;;
2022/03/30 02:38:20;;;;;;;22;8.349999;;;;;;;9.67;47.24316;93917.64;;;;
2022/03/30 02:39:21;;;;;;;22;8.349999;;;;;;;9.67;47.24316;93917.64;;;;
2022/03/30 02:40:21;;;;;;;22.8;8.5;;;;;;;9.78;47.45996;93892.77;;;;
2022/03/30 02:41:22;;;;;;;22.8;8.5;;;;;;;9.78;47.45996;93892.77;;;;
2022/03/30 02:42:23;;;;;;;22.8;8.5;;;;;;;9.78;47.45996;93892.77;;;;
2022/03/30 02:43:24;;;;;;;22.8;8.5;;;;;;;9.78;47.45996;93892.77;;;;
2022/03/30 02:44:24;;;;;;;22.8;8.5;;;;;;;9.78;47.45996;93892.77;;;;
2022/03/30 02:45:25;;;;;;;22.8;8.5;;;;;;;9.78;47.45996;93892.77;;;;
2022/03/30 02:46:25;;;;;;;22.8;8.5;;;;;;;9.78;47.45996;93892.77;;;;
2022/03/30 02:48:17;;;;;;;22.8;8.5;;;;;;;9.78;47.45996;93892.77;;;;
2022/03/30 02:49:18;;;;;;;22.8;8.5;;;;;;;9.78;47.45996;93892.77;;;;
2022/03/30 02:50:18;;;;;;;19.25;8.399999;;;;;;;9.85;47.52246;93874.86;;;;
2022/03/30 02:51:19;;;;;;;19.25;8.399999;;;;;;;9.85;47.52246;93874.86;;;;
2022/03/30 02:52:19;;;;;;;19.25;8.399999;;;;;;;9.85;47.52246;93874.86;;;;
2022/03/30 02:53:20;;;;;;;19.25;8.399999;;;;;;;9.85;47.52246;93874.86;;;;
2022/03/30 02:54:21;;;;;;;19.25;8.399999;;;;;;;9.85;47.52246;93874.86;;;;
2022/03/30 02:55:22;;;;;;;19.25;8.399999;;;;;;;9.85;47.52246;93874.86;;;;
2022/03/30 02:56:22;;;;;;;19.25;8.399999;;;;;;;9.85;47.52246;93874.86;;;;
2022/03/30 02:57:24;;;;;;;19.25;8.399999;;;;;;;9.85;47.52246;93874.86;;;;
2022/03/30 02:58:24;;;;;;;19.25;8.399999;;;;;;;9.85;47.52246;93874.86;;;;
2022/03/30 02:59:25;;;;;;;19.25;8.399999;;;;;;;9.85;47.52246;93874.86;;;;
2022/03/30 03:00:26;;;;;;;19.25;8.399999;;;;;;;9.85;47.52246;93874.86;;;;
2022/03/30 03:01:26;;;;;;;24.45;8.15;;;;;;;9.82;47.72266;93858.4;;;;
2022/03/30 03:02:27;;;;;;;24.45;8.15;;;;;;;9.82;47.72266;93858.4;;;;
2022/03/30 03:03:28;;;;;;;24.45;8.15;;;;;;;9.82;47.72266;93858.4;;;;
2022/03/30 03:04:28;;;;;;;24.45;8.15;;;;;;;9.82;47.72266;93858.4;;;;
2022/03/30 03:05:32;;;;;;;24.45;8.15;;;;;;;9.82;47.72266;93858.4;;;;
2022/03/30 03:06:32;;;;;;;24.45;8.15;;;;;;;9.82;47.72266;93858.4;;;;
2022/03/30 03:07:33;;;;;;;24.45;8.15;;;;;;;9.82;47.72266;93858.4;;;;
2022/03/30 03:08:33;;;;;;;24.45;8.15;;;;;;;9.82;47.72266;93858.4;;;;
2022/03/30 03:09:34;;;;;;;24.45;8.15;;;;;;;9.82;47.72266;93858.4;;;;
2022/03/30 03:10:34;;;;;;;24.45;8.15;;;;;;;9.82;47.72266;93858.4;;;;
2022/03/30 03:11:37;;;;;;;22.1;9.200001;;;;;;;9.71;47.99121;93857.54;;;;
2022/03/30 03:12:37;;;;;;;22.1;9.200001;;;;;;;9.71;47.99121;93857.54;;;;
2022/03/30 03:13:38;;;;;;;22.1;9.200001;;;;;;;9.71;47.99121;93857.54;;;;
2022/03/30 03:14:39;;;;;;;22.1;9.200001;;;;;;;9.71;47.99121;93857.54;;;;
2022/03/30 03:15:39;;;;;;;22.1;9.200001;;;;;;;9.71;47.99121;93857.54;;;;
2022/03/30 03:16:41;;;;;;;22.1;9.200001;;;;;;;9.71;47.99121;93857.54;;;;
2022/03/30 03:17:41;;;;;;;22.1;9.200001;;;;;;;9.71;47.99121;93857.54;;;;
2022/03/30 03:18:42;;;;;;;22.1;9.200001;;;;;;;9.71;47.99121;93857.54;;;;
2022/03/30 03:19:42;;;;;;;22.1;9.200001;;;;;;;9.71;47.99121;93857.54;;;;
2022/03/30 03:20:43;;;;;;;22.1;9.200001;;;;;;;9.71;47.99121;93857.54;;;;
2022/03/30 03:21:45;;;;;;;22.1;9.200001;;;;;;;9.71;47.99121;93857.54;;;;
2022/03/30 03:22:45;;;;;;;26.6;8.5;;;;;;;9.59;48.36426;93849.83;;;;
2022/03/30 03:23:46;;;;;;;26.6;8.5;;;;;;;9.59;48.36426;93849.83;;;;
2022/03/30 03:24:46;;;;;;;26.6;8.5;;;;;;;9.59;48.36426;93849.83;;;;
2022/03/30 03:25:47;;;;;;;26.6;8.5;;;;;;;9.59;48.36426;93849.83;;;;
2022/03/30 03:26:48;;;;;;;26.6;8.5;;;;;;;9.59;48.36426;93849.83;;;;
2022/03/30 03:27:48;;;;;;;26.6;8.5;;;;;;;9.59;48.36426;93849.83;;;;
2022/03/30 03:28:49;;;;;;;26.6;8.5;;;;;;;9.59;48.36426;93849.83;;;;
2022/03/30 03:29:50;;;;;;;26.6;8.5;;;;;;;9.59;48.36426;93849.83;;;;
2022/03/30 03:30:50;;;;;;;26.6;8.5;;;;;;;9.59;48.36426;93849.83;;;;
2022/03/30 03:31:51;;;;;;;26.6;8.5;;;;;;;9.59;48.36426;93849.83;;;;
2022/03/30 03:32:52;;;;;;;26.6;8.5;;;;;;;9.59;48.36426;93849.83;;;;
2022/03/30 03:33:53;;;;;;;27.95;8.500002;;;;;;;9.53;48.57227;93832.58;;;;
2022/03/30 03:34:53;;;;;;;27.95;8.500002;;;;;;;9.53;48.57227;93832.58;;;;
2022/03/30 03:35:54;;;;;;;27.95;8.500002;;;;;;;9.53;48.57227;93832.58;;;;
2022/03/30 03:36:54;;;;;;;27.95;8.500002;;;;;;;9.53;48.57227;93832.58;;;;
2022/03/30 03:37:55;;;;;;;27.95;8.500002;;;;;;;9.53;48.57227;93832.58;;;;
2022/03/30 03:38:56;;;;;;;27.95;8.500002;;;;;;;9.53;48.57227;93832.58;;;;
2022/03/30 03:39:56;;;;;;;27.95;8.500002;;;;;;;9.53;48.57227;93832.58;;;;
2022/03/30 03:40:57;;;;;;;27.95;8.500002;;;;;;;9.53;48.57227;93832.58;;;;
2022/03/30 03:41:57;;;;;;;27.95;8.500002;;;;;;;9.53;48.57227;93832.58;;;;
2022/03/30 03:42:58;;;;;;;27.95;8.500002;;;;;;;9.53;48.57227;93832.58;;;;
2022/03/30 03:43:58;;;;;;;24.45;7.900001;;;;;;;9.44;48.68164;93826.9;;;;
2022/03/30 03:44:59;;;;;;;24.45;7.900001;;;;;;;9.44;48.68164;93826.9;;;;
2022/03/30 03:46:00;;;;;;;24.45;7.900001;;;;;;;9.44;48.68164;93826.9;;;;
2022/03/30 03:47:00;;;;;;;24.45;7.900001;;;;;;;9.44;48.68164;93826.9;;;;
2022/03/30 03:48:02;;;;;;;24.45;7.900001;;;;;;;9.44;48.68164;93826.9;;;;
2022/03/30 03:49:04;;;;;;;24.45;7.900001;;;;;;;9.44;48.68164;93826.9;;;;
2022/03/30 03:50:04;;;;;;;24.45;7.900001;;;;;;;9.44;48.68164;93826.9;;;;
2022/03/30 03:51:06;;;;;;;24.45;7.900001;;;;;;;9.44;48.68164;93826.9;;;;
2022/03/30 03:52:06;;;;;;;24.45;7.900001;;;;;;;9.44;48.68164;93826.9;;;;
2022/03/30 03:53:07;;;;;;;24.45;7.900001;;;;;;;9.44;48.68164;93826.9;;;;
2022/03/30 03:54:09;;;;;;;24.45;7.900001;;;;;;;9.44;48.68164;93826.9;;;;
2022/03/30 03:55:09;;;;;;;19.2;7.9;;;;;;;9.49;48.74023;93809.81;;;;
2022/03/30 03:56:11;;;;;;;19.2;7.9;;;;;;;9.49;48.74023;93809.81;;;;
2022/03/30 03:57:11;;;;;;;19.2;7.9;;;;;;;9.49;48.74023;93809.81;;;;
2022/03/30 03:58:12;;;;;;;19.2;7.9;;;;;;;9.49;48.74023;93809.81;;;;
2022/03/30 03:59:12;;;;;;;19.2;7.9;;;;;;;9.49;48.74023;93809.81;;;;
2022/03/30 04:00:13;;;;;;;19.2;7.9;;;;;;;9.49;48.74023;93809.81;;;;
2022/03/30 04:01:14;;;;;;;19.2;7.9;;;;;;;9.49;48.74023;93809.81;;;;
2022/03/30 04:02:15;;;;;;;19.2;7.9;;;;;;;9.49;48.74023;93809.81;;;;
2022/03/30 04:03:16;;;;;;;19.2;7.9;;;;;;;9.49;48.74023;93809.81;;;;
2022/03/30 04:04:16;;;;;;;19.2;7.9;;;;;;;9.49;48.74023;93809.81;;;;
2022/03/30 04:05:17;;;;;;;23.6;8.550001;;;;;;;9.52;48.76465;93795.39;;;;
2022/03/30 04:06:17;;;;;;;23.6;8.550001;;;;;;;9.52;48.76465;93795.39;;;;
2022/03/30 04:07:18;;;;;;;23.6;8.550001;;;;;;;9.52;48.76465;93795.39;;;;
2022/03/30 04:08:20;;;;;;;23.6;8.550001;;;;;;;9.52;48.76465;93795.39;;;;
2022/03/30 04:09:20;;;;;;;23.6;8.550001;;;;;;;9.52;48.76465;93795.39;;;;
2022/03/30 04:10:21;;;;;;;23.6;8.550001;;;;;;;9.52;48.76465;93795.39;;;;
2022/03/30 04:11:21;;;;;;;23.6;8.550001;;;;;;;9.52;48.76465;93795.39;;;;
2022/03/30 04:12:22;;;;;;;23.6;8.550001;;;;;;;9.52;48.76465;93795.39;;;;
2022/03/30 04:13:23;;;;;;;23.6;8.550001;;;;;;;9.52;48.76465;93795.39;;;;
2022/03/30 04:14:23;;;;;;;23.6;8.550001;;;;;;;9.52;48.76465;93795.39;;;;
2022/03/30 04:15:24;;;;;;;23.6;8.550001;;;;;;;9.52;48.76465;93795.39;;;;
2022/03/30 04:16:25;;;;;;;26.15;8.600002;;;;;;;9.46;48.99512;93787.83;;;;
2022/03/30 04:17:25;;;;;;;26.15;8.600002;;;;;;;9.46;48.99512;93787.83;;;;
2022/03/30 04:18:26;;;;;;;26.15;8.600002;;;;;;;9.46;48.99512;93787.83;;;;
2022/03/30 04:19:26;;;;;;;26.15;8.600002;;;;;;;9.46;48.99512;93787.83;;;;
2022/03/30 04:20:27;;;;;;;26.15;8.600002;;;;;;;9.46;48.99512;93787.83;;;;
2022/03/30 04:21:27;;;;;;;26.15;8.600002;;;;;;;9.46;48.99512;93787.83;;;;
2022/03/30 04:22:28;;;;;;;26.15;8.600002;;;;;;;9.46;48.99512;93787.83;;;;
2022/03/30 04:23:28;;;;;;;26.15;8.600002;;;;;;;9.46;48.99512;93787.83;;;;
2022/03/30 04:24:29;;;;;;;26.15;8.600002;;;;;;;9.46;48.99512;93787.83;;;;
2022/03/30 04:25:29;;;;;;;26.15;8.600002;;;;;;;9.46;48.99512;93787.83;;;;
2022/03/30 04:26:30;;;;;;;24.3;8.650001;;;;;;;9.32;49.22656;93784.55;;;;
2022/03/30 04:27:30;;;;;;;24.3;8.650001;;;;;;;9.32;49.22656;93784.55;;;;
2022/03/30 04:28:31;;;;;;;24.3;8.650001;;;;;;;9.32;49.22656;93784.55;;;;
2022/03/30 04:29:32;;;;;;;24.3;8.650001;;;;;;;9.32;49.22656;93784.55;;;;
2022/03/30 04:30:32;;;;;;;24.3;8.650001;;;;;;;9.32;49.22656;93784.55;;;;
2022/03/30 04:31:33;;;;;;;24.3;8.650001;;;;;;;9.32;49.22656;93784.55;;;;
2022/03/30 04:32:34;;;;;;;24.3;8.650001;;;;;;;9.32;49.22656;93784.55;;;;
2022/03/30 04:33:34;;;;;;;24.3;8.650001;;;;;;;9.32;49.22656;93784.55;;;;
2022/03/30 04:34:35;;;;;;;24.3;8.650001;;;;;;;9.32;49.22656;93784.55;;;;
2022/03/30 04:35:36;;;;;;;24.3;8.650001;;;;;;;9.32;49.22656;93784.55;;;;
2022/03/30 04:36:36;;;;;;;24.3;8.650001;;;;;;;9.32;49.22656;93784.55;;;;
2022/03/30 04:37:37;;;;;;;21.55;8.6;;;;;;;9.14;49.64746;93785.85;;;;
2022/03/30 04:38:38;;;;;;;21.55;8.6;;;;;;;9.14;49.64746;93785.85;;;;
2022/03/30 04:39:38;;;;;;;21.55;8.6;;;;;;;9.14;49.64746;93785.85;;;;
2022/03/30 04:40:39;;;;;;;21.55;8.6;;;;;;;9.14;49.64746;93785.85;;;;
2022/03/30 04:41:39;;;;;;;21.55;8.6;;;;;;;9.14;49.64746;93785.85;;;;
2022/03/30 04:42:40;;;;;;;21.55;8.6;;;;;;;9.14;49.64746;93785.85;;;;
2022/03/30 04:43:41;;;;;;;21.55;8.6;;;;;;;9.14;49.64746;93785.85;;;;
2022/03/30 04:44:42;;;;;;;21.55;8.6;;;;;;;9.14;49.64746;93785.85;;;;
2022/03/30 04:45:42;;;;;;;21.55;8.6;;;;;;;9.14;49.64746;93785.85;;;;
2022/03/30 04:46:43;;;;;;;21.55;8.6;;;;;;;9.14;49.64746;93785.85;;;;
2022/03/30 04:47:43;;;;;;;26.85;9.2;;;;;;;9.13;50;93783.83;;;;
2022/03/30 04:48:44;;;;;;;26.85;9.2;;;;;;;9.13;50;93783.83;;;;
2022/03/30 04:49:44;;;;;;;26.85;9.2;;;;;;;9.13;50;93783.83;;;;
2022/03/30 04:50:45;;;;;;;26.85;9.2;;;;;;;9.13;50;93783.83;;;;
2022/03/30 04:51:46;;;;;;;26.85;9.2;;;;;;;9.13;50;93783.83;;;;
2022/03/30 04:52:46;;;;;;;26.85;9.2;;;;;;;9.13;50;93783.83;;;;
2022/03/30 04:53:47;;;;;;;26.85;9.2;;;;;;;9.13;50;93783.83;;;;
2022/03/30 04:54:47;;;;;;;26.85;9.2;;;;;;;9.13;50;93783.83;;;;
2022/03/30 04:55:48;;;;;;;26.85;9.2;;;;;;;9.13;50;93783.83;;;;
2022/03/30 04:56:51;;;;;;;26.85;9.2;;;;;;;9.13;50;93783.83;;;;
2022/03/30 04:57:52;;;;;;;26.85;9.2;;;;;;;9.13;50;93783.83;;;;
2022/03/30 04:58:53;;;;;;;21.1;8.6;;;;;;;9.25;49.90625;93786.27;;;;
2022/03/30 04:59:53;;;;;;;21.1;8.6;;;;;;;9.25;49.90625;93786.27;;;;
2022/03/30 05:00:54;;;;;;;21.1;8.6;;;;;;;9.25;49.90625;93786.27;;;;
2022/03/30 05:01:54;;;;;;;21.1;8.6;;;;;;;9.25;49.90625;93786.27;;;;
2022/03/30 05:02:55;;;;;;;21.1;8.6;;;;;;;9.25;49.90625;93786.27;;;;
2022/03/30 05:03:55;;;;;;;21.1;8.6;;;;;;;9.25;49.90625;93786.27;;;;
2022/03/30 05:04:56;;;;;;;21.1;8.6;;;;;;;9.25;49.90625;93786.27;;;;
2022/03/30 05:05:56;;;;;;;21.1;8.6;;;;;;;9.25;49.90625;93786.27;;;;
2022/03/30 05:06:58;;;;;;;21.1;8.6;;;;;;;9.25;49.90625;93786.27;;;;
2022/03/30 05:07:58;;;;;;;21.1;8.6;;;;;;;9.25;49.90625;93786.27;;;;
2022/03/30 05:08:59;;;;;;;21.1;8.6;;;;;;;9.25;49.90625;93786.27;;;;
2022/03/30 05:09:59;;;;;;;26.7;9;;;;;;;9.39;49.74023;93781.47;;;;
2022/03/30 05:11:00;;;;;;;26.7;9;;;;;;;9.39;49.74023;93781.47;;;;
2022/03/30 05:12:02;;;;;;;26.7;9;;;;;;;9.39;49.74023;93781.47;;;;
2022/03/30 05:13:04;;;;;;;26.7;9;;;;;;;9.39;49.74023;93781.47;;;;
2022/03/30 05:14:05;;;;;;;26.7;9;;;;;;;9.39;49.74023;93781.47;;;;
2022/03/30 05:15:05;;;;;;;26.7;9;;;;;;;9.39;49.74023;93781.47;;;;
2022/03/30 05:16:08;;;;;;;26.7;9;;;;;;;9.39;49.74023;93781.47;;;;
2022/03/30 05:17:08;;;;;;;26.7;9;;;;;;;9.39;49.74023;93781.47;;;;
2022/03/30 05:18:09;;;;;;;26.7;9;;;;;;;9.39;49.74023;93781.47;;;;
2022/03/30 05:19:10;;;;;;;26.7;9;;;;;;;9.39;49.74023;93781.47;;;;
2022/03/30 05:20:11;;;;;;;24.2;8.949999;;;;;;;9.53;49.63867;93776.26;;;;
2022/03/30 05:21:12;;;;;;;24.2;8.949999;;;;;;;9.53;49.63867;93776.26;;;;
2022/03/30 05:22:12;;;;;;;24.2;8.949999;;;;;;;9.53;49.63867;93776.26;;;;
2022/03/30 05:23:13;;;;;;;24.2;8.949999;;;;;;;9.53;49.63867;93776.26;;;;
2022/03/30 05:24:13;;;;;;;24.2;8.949999;;;;;;;9.53;49.63867;93776.26;;;;
2022/03/30 05:25:15;;;;;;;24.2;8.949999;;;;;;;9.53;49.63867;93776.26;;;;
2022/03/30 05:26:15;;;;;;;24.2;8.949999;;;;;;;9.53;49.63867;93776.26;;;;
2022/03/30 05:27:16;;;;;;;24.2;8.949999;;;;;;;9.53;49.63867;93776.26;;;;
2022/03/30 05:28:16;;;;;;;24.2;8.949999;;;;;;;9.53;49.63867;93776.26;;;;
2022/03/30 05:29:17;;;;;;;24.2;8.949999;;;;;;;9.53;49.63867;93776.26;;;;
2022/03/30 05:30:17;;;;;;;24.2;8.949999;;;;;;;9.53;49.63867;93776.26;;;;
2022/03/30 05:31:18;;;;;;;24.55;8.65;;;;;;;9.65;49.55469;93775.62;;;;
2022/03/30 05:32:18;;;;;;;24.55;8.65;;;;;;;9.65;49.55469;93775.62;;;;
2022/03/30 05:33:19;;;;;;;24.55;8.65;;;;;;;9.65;49.55469;93775.62;;;;
2022/03/30 05:34:19;;;;;;;24.55;8.65;;;;;;;9.65;49.55469;93775.62;;;;
2022/03/30 05:35:19;;;;;;;24.55;8.65;;;;;;;9.65;49.55469;93775.62;;;;
2022/03/30 05:36:20;;;;;;;24.55;8.65;;;;;;;9.65;49.55469;93775.62;;;;
2022/03/30 05:37:21;;;;;;;24.55;8.65;;;;;;;9.65;49.55469;93775.62;;;;
2022/03/30 05:38:21;;;;;;;24.55;8.65;;;;;;;9.65;49.55469;93775.62;;;;
2022/03/30 05:39:22;;;;;;;24.55;8.65;;;;;;;9.65;49.55469;93775.62;;;;
2022/03/30 05:40:22;;;;;;;24.55;8.65;;;;;;;9.65;49.55469;93775.62;;;;
2022/03/30 05:41:23;;;;;;;25.95;9.149999;;;;;;;9.73;49.60742;93781.28;;;;
2022/03/30 05:42:24;;;;;;;25.95;9.149999;;;;;;;9.73;49.60742;93781.28;;;;
2022/03/30 05:43:25;;;;;;;25.95;9.149999;;;;;;;9.73;49.60742;93781.28;;;;
2022/03/30 05:44:25;;;;;;;25.95;9.149999;;;;;;;9.73;49.60742;93781.28;;;;
2022/03/30 05:45:26;;;;;;;25.95;9.149999;;;;;;;9.73;49.60742;93781.28;;;;
2022/03/30 05:46:26;;;;;;;25.95;9.149999;;;;;;;9.73;49.60742;93781.28;;;;